createdAt,value
2022-11-10T00:00:01.540Z,2.17
2022-11-10T00:03:08.696Z,2.78
2022-11-10T00:05:56.307Z,1.98
2022-11-10T00:08:44.414Z,2.03
2022-11-10T00:11:32.346Z,2.22
2022-11-10T00:14:39.314Z,2.25
2022-11-10T00:26:33.451Z,1.92
2022-11-10T00:29:23.660Z,2.93
2022-11-10T00:32:19.946Z,1.60
2022-11-10T00:35:20.917Z,1.83
2022-11-10T00:38:17.983Z,2.58
2022-11-10T00:41:07.189Z,2.60
2022-11-10T00:43:54.820Z,2.38
2022-11-10T00:46:42.298Z,2.00
2022-11-10T00:49:29.358Z,1.98
2022-11-10T00:52:16.882Z,1.90
2022-11-10T00:55:04.091Z,2.53
2022-11-10T00:57:50.994Z,2.47
2022-11-10T01:00:38.092Z,1.83
2022-11-10T01:03:31.451Z,2.15
2022-11-10T01:06:19.286Z,2.47
2022-11-10T01:09:06.540Z,1.40
2022-11-10T01:11:54.123Z,2.17
2022-11-10T01:14:41.517Z,3.10
2022-11-10T01:17:30.483Z,1.92
2022-11-10T01:20:17.711Z,1.70
2022-11-10T01:23:05.016Z,3.08
2022-11-10T01:26:07.963Z,2.03
2022-11-10T01:29:13.276Z,2.00
2022-11-10T01:32:18.767Z,2.15
2022-11-10T01:35:24.810Z,1.60
2022-11-10T01:38:31.112Z,2.05
2022-11-10T01:41:37.012Z,2.20
2022-11-10T01:44:43.499Z,2.17
2022-11-10T01:47:43.024Z,1.60
2022-11-10T01:50:36.365Z,2.38
2022-11-10T01:53:25.932Z,1.80
2022-11-10T01:56:15.560Z,1.73
2022-11-10T01:59:12.018Z,2.45
2022-11-10T02:02:20.645Z,1.80
2022-11-10T02:05:27.487Z,1.92
2022-11-10T02:08:23.281Z,2.83
2022-11-10T02:11:13.094Z,2.92
2022-11-10T02:14:00.739Z,1.80
2022-11-10T02:16:47.797Z,2.42
2022-11-10T02:19:40.939Z,3.05
2022-11-10T02:22:28.005Z,1.60
2022-11-10T02:25:22.392Z,1.20
2022-11-10T02:28:23.983Z,2.00
2022-11-10T02:31:19.123Z,1.95
2022-11-10T02:34:11.290Z,2.92
2022-11-10T02:36:58.742Z,1.67
2022-11-10T02:39:45.921Z,1.80
2022-11-10T02:42:33.357Z,1.92
2022-11-10T02:45:20.051Z,1.73
2022-11-10T02:48:21.945Z,2.05
2022-11-10T02:51:14.127Z,2.60
2022-11-10T02:54:10.331Z,1.40
2022-11-10T02:57:02.685Z,3.03
2022-11-10T02:59:56.890Z,2.28
2022-11-10T03:03:03.598Z,3.45
2022-11-10T03:06:06.630Z,1.75
2022-11-10T03:09:07.688Z,2.50
2022-11-10T03:11:54.698Z,2.05
2022-11-10T03:14:41.492Z,3.42
2022-11-10T03:17:29.053Z,2.28
2022-11-10T03:20:17.954Z,1.98
2022-11-10T03:23:22.886Z,2.10
2022-11-10T03:26:23.462Z,2.10
2022-11-10T03:29:16.560Z,2.08
2022-11-10T03:32:21.404Z,2.17
2022-11-10T03:35:08.526Z,1.52
2022-11-10T03:37:55.501Z,1.88
2022-11-10T03:41:12.565Z,2.13
2022-11-10T03:43:50.214Z,1.60
2022-11-10T03:49:50.109Z,1.77
2022-11-10T03:52:41.164Z,1.95
2022-11-10T03:55:32.466Z,1.80
2022-11-10T03:58:20.170Z,1.95
2022-11-10T04:01:07.948Z,2.22
2022-11-10T04:03:56.545Z,1.73
2022-11-10T04:07:02.088Z,1.80
2022-11-10T04:09:53.067Z,1.83
2022-11-10T04:13:10.208Z,1.95
2022-11-10T04:16:01.667Z,2.38
2022-11-10T04:18:59.418Z,1.63
2022-11-10T04:21:49.380Z,2.45
2022-11-10T04:24:51.115Z,2.38
2022-11-10T04:27:51.853Z,1.58
2022-11-10T04:30:47.499Z,1.83
2022-11-10T04:33:39.998Z,1.88
2022-11-10T04:36:29.986Z,1.80
2022-11-10T04:39:35.273Z,2.30
2022-11-10T04:42:40.707Z,1.77
2022-11-10T04:45:34.835Z,2.60
2022-11-10T04:48:37.416Z,1.75
2022-11-10T04:51:36.793Z,1.70
2022-11-10T04:54:35.390Z,2.35
2022-11-10T04:57:32.313Z,2.10
2022-11-10T05:00:27.146Z,2.63
2022-11-10T05:03:31.997Z,2.05
2022-11-10T05:06:28.295Z,2.08
2022-11-10T05:09:32.000Z,2.65
2022-11-10T05:12:26.357Z,2.47
2022-11-10T05:15:23.063Z,1.98
2022-11-10T05:18:29.100Z,4.13
2022-11-10T05:21:26.432Z,2.75
2022-11-10T05:24:14.304Z,2.92
2022-11-10T05:27:01.403Z,2.75
2022-11-10T05:29:48.283Z,2.47
2022-11-10T05:32:54.446Z,2.08
2022-11-10T05:35:53.905Z,2.40
2022-11-10T05:38:59.617Z,2.90
2022-11-10T05:42:05.695Z,2.17
2022-11-10T05:45:11.904Z,2.15
2022-11-10T05:48:18.111Z,2.28
2022-11-10T05:51:16.366Z,2.22
2022-11-10T05:54:09.747Z,2.08
2022-11-10T05:57:10.567Z,2.17
2022-11-10T06:00:07.730Z,1.73
2022-11-10T06:03:15.835Z,2.03
2022-11-10T06:06:03.091Z,1.33
2022-11-10T06:09:04.379Z,1.80
2022-11-10T06:12:05.989Z,1.98
2022-11-10T06:15:02.880Z,2.28
2022-11-10T06:18:09.181Z,3.08
2022-11-10T06:21:00.816Z,1.92
2022-11-10T06:26:49.749Z,1.80
2022-11-10T06:29:40.048Z,4.00
2022-11-10T06:32:27.424Z,2.03
2022-11-10T06:35:15.927Z,1.92
2022-11-10T06:38:04.619Z,2.38
2022-11-10T06:40:52.594Z,1.60
2022-11-10T06:43:56.052Z,1.48
2022-11-10T06:46:54.220Z,2.15
2022-11-10T06:49:45.722Z,1.67
2022-11-10T06:52:55.632Z,2.30
2022-11-10T06:55:42.906Z,1.48
2022-11-10T06:58:30.477Z,2.25
2022-11-10T07:01:22.154Z,1.92
2022-11-10T07:04:25.404Z,2.63
2022-11-10T07:07:13.212Z,2.08
2022-11-10T07:10:04.244Z,2.45
2022-11-10T07:12:58.483Z,2.20
2022-11-10T07:15:47.133Z,3.00
2022-11-10T07:18:53.320Z,2.40
2022-11-10T07:21:47.997Z,2.08
2022-11-10T07:24:49.480Z,8.77
2022-11-10T07:27:53.880Z,7.18
2022-11-10T07:30:52.478Z,4.65
2022-11-10T07:33:54.747Z,4.40
2022-11-10T07:36:44.957Z,2.60
2022-11-10T07:42:54.041Z,2.10
2022-11-10T07:46:01.012Z,1.65
2022-11-10T07:49:07.026Z,2.20
2022-11-10T07:52:06.356Z,2.30
2022-11-10T07:54:54.377Z,2.00
2022-11-10T07:57:47.639Z,2.95
2022-11-10T08:00:35.472Z,2.30
2022-11-10T08:03:29.797Z,3.67
2022-11-10T08:06:17.277Z,4.28
2022-11-10T08:09:05.116Z,2.85
2022-11-10T08:11:51.919Z,2.55
2022-11-10T08:14:39.259Z,2.88
2022-11-10T08:17:26.741Z,3.40
2022-11-10T08:20:15.516Z,2.80
2022-11-10T08:23:04.774Z,2.45
2022-11-10T08:25:53.291Z,2.58
2022-11-10T08:28:54.658Z,2.85
2022-11-10T08:32:00.733Z,2.47
2022-11-10T08:35:07.166Z,3.65
2022-11-10T08:38:14.715Z,6.28
2022-11-10T08:41:21.138Z,8.43
2022-11-10T08:44:27.799Z,2.90
2022-11-10T08:47:28.540Z,3.28
2022-11-10T08:50:26.994Z,2.45
2022-11-10T08:53:20.491Z,2.53
2022-11-10T08:56:07.866Z,2.95
2022-11-10T08:58:55.005Z,2.78
2022-11-10T09:01:42.147Z,2.53
2022-11-10T09:04:48.868Z,3.08
2022-11-10T09:07:55.042Z,2.95
2022-11-10T09:11:05.261Z,2.63
2022-11-10T09:14:02.494Z,2.60
2022-11-10T09:17:10.051Z,2.67
2022-11-10T09:19:57.046Z,2.90
2022-11-10T09:22:47.443Z,1.70
2022-11-10T09:25:35.616Z,2.58
2022-11-10T09:28:41.725Z,3.30
2022-11-10T09:31:34.578Z,3.60
2022-11-10T09:34:37.241Z,2.83
2022-11-10T09:37:43.534Z,2.53
2022-11-10T09:40:48.696Z,3.13
2022-11-10T09:43:43.600Z,4.15
2022-11-10T09:46:31.189Z,3.30
2022-11-10T09:49:20.764Z,2.92
2022-11-10T09:52:08.996Z,2.42
2022-11-10T09:54:59.130Z,2.35
2022-11-10T09:57:48.821Z,3.92
2022-11-10T10:00:37.705Z,1.98
2022-11-10T10:03:28.048Z,2.08
2022-11-10T10:06:16.218Z,3.35
2022-11-10T10:09:27.306Z,2.22
2022-11-10T10:12:42.050Z,2.00
2022-11-10T10:15:48.116Z,2.95
2022-11-10T10:18:51.459Z,2.42
2022-11-10T10:21:50.299Z,2.30
2022-11-10T10:24:39.864Z,3.42
2022-11-10T10:27:28.978Z,4.20
2022-11-10T10:30:17.693Z,2.50
2022-11-10T10:33:24.362Z,1.58
2022-11-10T10:36:19.258Z,0.82
2022-11-10T10:39:09.177Z,2.05
2022-11-10T10:41:57.084Z,1.73
2022-11-10T10:45:04.196Z,1.65
2022-11-10T10:47:55.091Z,1.85
2022-11-10T10:50:44.158Z,1.70
2022-11-10T10:53:31.952Z,1.58
2022-11-10T10:56:21.495Z,1.00
2022-11-10T10:59:18.285Z,3.15
2022-11-10T11:02:20.085Z,1.75
2022-11-10T11:05:12.765Z,3.30
2022-11-10T11:08:01.038Z,1.80
2022-11-10T11:10:47.870Z,1.10
2022-11-10T11:13:35.622Z,1.30
2022-11-10T11:16:22.897Z,2.58
2022-11-10T11:19:10.902Z,2.70
2022-11-10T11:22:10.556Z,1.95
2022-11-10T11:24:58.276Z,1.90
2022-11-10T11:28:00.508Z,8.02
2022-11-10T11:31:23.195Z,2.08
2022-11-10T11:34:23.152Z,1.65
2022-11-10T11:37:29.785Z,2.58
2022-11-10T11:40:22.691Z,2.10
2022-11-10T11:43:13.028Z,1.77
2022-11-10T11:46:27.481Z,2.78
2022-11-10T11:49:29.704Z,0.90
2022-11-10T11:52:17.781Z,1.30
2022-11-10T11:55:15.949Z,1.30
2022-11-10T11:58:02.468Z,1.33
2022-11-10T12:00:55.813Z,1.50
2022-11-10T12:03:52.435Z,1.50
2022-11-10T12:06:54.428Z,1.00
2022-11-10T12:09:46.500Z,1.40
2022-11-10T12:13:08.747Z,1.75
2022-11-10T12:16:07.373Z,0.95
2022-11-10T12:19:00.021Z,1.40
2022-11-10T12:21:50.410Z,1.00
2022-11-10T12:24:37.120Z,0.93
2022-11-10T12:27:27.921Z,1.05
2022-11-10T12:30:15.866Z,1.17
2022-11-10T12:33:03.556Z,1.25
2022-11-10T12:35:52.577Z,1.00
2022-11-10T12:39:10.924Z,1.85
2022-11-10T12:42:05.410Z,5.85
2022-11-10T12:45:07.770Z,1.33
2022-11-10T12:47:55.555Z,3.97
2022-11-10T12:50:45.735Z,1.15
2022-11-10T12:53:33.659Z,1.33
2022-11-10T12:56:47.412Z,0.90
2022-11-10T12:59:36.478Z,1.50
2022-11-10T13:02:26.067Z,0.50
2022-11-10T13:05:16.116Z,1.00
2022-11-10T13:08:25.590Z,1.38
2022-11-10T13:11:13.041Z,0.80
2022-11-10T13:14:00.380Z,0.82
2022-11-10T13:16:51.121Z,1.00
2022-11-10T13:19:39.128Z,1.00
2022-11-10T13:22:30.895Z,0.82
2022-11-10T13:25:35.935Z,0.93
2022-11-10T13:28:41.114Z,1.65
2022-11-10T13:31:27.570Z,1.13
2022-11-10T13:34:20.919Z,1.20
2022-11-10T13:37:26.703Z,0.93
2022-11-10T13:40:20.764Z,0.90
2022-11-10T13:43:13.920Z,1.00
2022-11-10T13:46:03.266Z,0.60
2022-11-10T13:49:15.269Z,1.30
2022-11-10T13:52:15.006Z,1.50
2022-11-10T13:55:26.218Z,1.05
2022-11-10T13:58:19.604Z,0.70
2022-11-10T14:01:21.383Z,1.23
2022-11-10T14:04:09.312Z,1.77
2022-11-10T14:06:56.952Z,1.80
2022-11-10T14:09:50.060Z,0.90
2022-11-10T14:13:05.621Z,1.17
2022-11-10T14:15:54.133Z,1.00
2022-11-10T14:18:46.561Z,1.30
2022-11-10T14:21:38.583Z,5.38
2022-11-10T14:24:30.161Z,2.72
2022-11-10T14:27:27.911Z,1.00
2022-11-10T14:30:24.722Z,1.08
2022-11-10T14:33:31.529Z,1.17
2022-11-10T14:36:19.501Z,1.20
2022-11-10T14:39:15.429Z,0.95
2022-11-10T14:42:08.497Z,1.65
2022-11-10T14:45:15.312Z,0.85
2022-11-10T14:48:02.352Z,0.85
2022-11-10T14:50:50.071Z,1.60
2022-11-10T14:53:41.503Z,2.90
2022-11-10T14:56:36.737Z,1.80
2022-11-10T14:59:25.950Z,0.85
2022-11-10T15:02:17.888Z,1.00
2022-11-10T15:05:16.795Z,1.10
2022-11-10T15:08:16.188Z,1.00
2022-11-10T15:11:35.080Z,1.15
2022-11-10T15:14:35.371Z,2.15
2022-11-10T15:17:47.164Z,1.27
2022-11-10T15:20:36.189Z,1.13
2022-11-10T15:23:33.084Z,1.13
2022-11-10T15:26:22.444Z,1.13
2022-11-10T15:29:22.804Z,1.65
2022-11-10T15:32:19.822Z,0.93
2022-11-10T15:35:09.940Z,0.85
2022-11-10T15:38:18.126Z,1.23
2022-11-10T15:41:17.051Z,1.20
2022-11-10T15:44:24.286Z,0.75
2022-11-10T15:47:12.270Z,0.85
2022-11-10T15:50:01.271Z,0.98
2022-11-10T15:52:51.176Z,0.98
2022-11-10T15:55:47.528Z,0.93
2022-11-10T15:59:00.632Z,1.38
2022-11-10T16:02:23.032Z,2.72
2022-11-10T16:05:29.032Z,2.55
2022-11-10T16:08:32.258Z,0.95
2022-11-10T16:11:39.068Z,1.58
2022-11-10T16:14:37.461Z,2.13
2022-11-10T16:17:40.205Z,1.60
2022-11-10T16:20:47.133Z,2.17
2022-11-10T16:23:53.968Z,1.30
2022-11-10T16:26:53.392Z,1.75
2022-11-10T16:29:59.408Z,1.45
2022-11-10T16:33:05.647Z,1.23
2022-11-10T16:36:17.987Z,1.00
2022-11-10T16:39:25.282Z,1.73
2022-11-10T16:42:31.228Z,2.13
2022-11-10T16:45:24.369Z,2.63
2022-11-10T16:48:17.903Z,1.40
2022-11-10T16:51:06.809Z,1.05
2022-11-10T16:53:54.338Z,1.40
2022-11-10T16:57:00.282Z,1.20
2022-11-10T17:00:04.514Z,2.03
2022-11-10T17:03:35.384Z,2.85
2022-11-10T17:06:49.579Z,1.70
2022-11-10T17:09:50.533Z,1.77
2022-11-10T17:12:42.797Z,1.83
2022-11-10T17:15:32.233Z,1.50
2022-11-10T17:18:32.414Z,1.42
2022-11-10T17:21:44.572Z,1.95
2022-11-10T17:24:41.666Z,2.25
2022-11-10T17:27:43.009Z,2.67
2022-11-10T17:30:43.330Z,1.67
2022-11-10T17:33:38.792Z,2.15
2022-11-10T17:36:44.990Z,1.90
2022-11-10T17:39:38.668Z,1.73
2022-11-10T17:42:45.514Z,2.00
2022-11-10T17:45:32.879Z,1.42
2022-11-10T17:48:21.277Z,1.40
2022-11-10T17:51:21.812Z,1.52
2022-11-10T17:54:14.964Z,1.00
2022-11-10T17:57:20.668Z,2.00
2022-11-10T18:00:20.832Z,1.35
2022-11-10T18:03:26.709Z,1.35
2022-11-10T18:06:28.466Z,1.50
2022-11-10T18:09:33.077Z,1.60
2022-11-10T18:12:40.613Z,1.70
2022-11-10T18:15:37.277Z,1.50
2022-11-10T18:18:36.605Z,2.70
2022-11-10T18:21:30.681Z,2.58
2022-11-10T18:24:29.332Z,1.70
2022-11-10T18:27:21.836Z,2.00
2022-11-10T18:30:20.516Z,2.58
2022-11-10T18:33:29.280Z,1.80
2022-11-10T18:36:17.139Z,2.00
2022-11-10T18:39:04.907Z,1.98
2022-11-10T18:41:52.675Z,2.33
2022-11-10T18:44:41.738Z,1.58
2022-11-10T18:47:30.173Z,2.30
2022-11-10T18:50:17.155Z,2.40
2022-11-10T18:53:05.496Z,1.63
2022-11-10T18:56:04.709Z,2.60
2022-11-10T18:59:08.451Z,1.90
2022-11-10T19:02:03.157Z,3.20
2022-11-10T19:05:03.235Z,2.38
2022-11-10T19:07:51.907Z,3.20
2022-11-10T19:10:42.756Z,2.47
2022-11-10T19:13:30.060Z,2.08
2022-11-10T19:16:18.815Z,2.45
2022-11-10T19:19:24.821Z,2.60
2022-11-10T19:22:22.108Z,2.55
2022-11-10T19:25:22.945Z,2.17
2022-11-10T19:28:28.855Z,2.10
2022-11-10T19:31:27.929Z,2.00
2022-11-10T19:34:25.575Z,1.83
2022-11-10T19:37:34.752Z,1.65
2022-11-10T19:40:25.225Z,1.85
2022-11-10T19:43:30.925Z,3.45
2022-11-10T19:46:36.679Z,1.90
2022-11-10T19:49:38.253Z,2.00
2022-11-10T19:52:44.226Z,1.77
2022-11-10T19:55:32.962Z,1.95
2022-11-10T19:58:21.262Z,3.33
2022-11-10T20:01:10.060Z,2.78
2022-11-10T20:03:56.964Z,1.75
2022-11-10T20:06:44.625Z,2.35
2022-11-10T20:09:34.043Z,1.90
2022-11-10T20:12:22.897Z,1.83
2022-11-10T20:15:11.094Z,1.95
2022-11-10T20:18:16.095Z,2.20
2022-11-10T20:21:20.111Z,1.80
2022-11-10T20:24:16.729Z,2.00
2022-11-10T20:27:03.577Z,2.05
2022-11-10T20:29:51.175Z,2.50
2022-11-10T20:32:47.788Z,1.92
2022-11-10T20:35:40.337Z,2.47
2022-11-10T20:38:27.480Z,2.22
2022-11-10T20:41:17.084Z,2.17
2022-11-10T20:44:04.237Z,3.10
2022-11-10T20:46:55.367Z,2.47
2022-11-10T20:49:43.133Z,3.08
2022-11-10T20:52:35.134Z,8.43
2022-11-10T20:55:43.694Z,10.82
2022-11-10T20:58:29.691Z,3.60
2022-11-10T21:01:17.456Z,3.25
2022-11-10T21:04:18.104Z,3.28
2022-11-10T21:07:18.612Z,3.53
2022-11-10T21:10:12.576Z,3.77
2022-11-10T21:16:06.446Z,3.83
2022-11-10T21:18:57.077Z,3.20
2022-11-10T21:21:44.873Z,4.30
2022-11-10T21:24:34.358Z,4.22
2022-11-10T21:27:34.836Z,4.30
2022-11-10T21:30:37.723Z,4.38
2022-11-10T21:33:43.668Z,4.18
2022-11-10T21:36:47.783Z,5.13
2022-11-10T21:39:35.538Z,4.03
2022-11-10T21:42:23.302Z,4.78
2022-11-10T21:45:10.619Z,4.60
2022-11-10T21:48:02.056Z,4.35
2022-11-10T21:50:50.239Z,4.70
2022-11-10T21:53:39.072Z,4.70
2022-11-10T21:56:27.166Z,4.97
2022-11-10T21:59:14.102Z,4.45
2022-11-10T22:02:01.559Z,4.65
2022-11-10T22:05:07.616Z,5.70
2022-11-10T22:08:07.504Z,4.80
2022-11-10T22:11:24.096Z,4.82
2022-11-10T22:14:30.174Z,4.53
2022-11-10T22:17:35.054Z,3.95
2022-11-10T22:20:21.596Z,5.03
2022-11-10T22:23:08.646Z,5.45
2022-11-10T22:25:56.767Z,4.30
2022-11-10T22:28:43.772Z,4.32
2022-11-10T22:31:33.996Z,4.28
2022-11-10T22:34:21.488Z,4.35
2022-11-10T22:37:17.145Z,4.55
2022-11-10T22:40:42.074Z,5.03
2022-11-10T22:43:58.575Z,4.45
2022-11-10T22:46:51.092Z,5.43
2022-11-10T22:49:38.993Z,4.30
2022-11-10T22:52:26.067Z,4.80
2022-11-10T22:55:12.934Z,4.35
2022-11-10T22:58:01.644Z,4.93
2022-11-10T23:01:04.895Z,4.20
2022-11-10T23:04:11.719Z,4.38
2022-11-10T23:07:13.731Z,4.50
2022-11-10T23:10:13.283Z,4.38
2022-11-10T23:13:00.992Z,4.00
2022-11-10T23:15:52.052Z,4.57
2022-11-10T23:18:41.503Z,4.50
2022-11-10T23:21:30.812Z,3.78
2022-11-10T23:24:20.917Z,4.85
2022-11-10T23:27:08.120Z,5.82
2022-11-10T23:29:55.346Z,5.03
2022-11-10T23:32:45.222Z,5.35
2022-11-10T23:35:51.281Z,4.10
2022-11-10T23:38:57.593Z,4.85
2022-11-10T23:42:03.956Z,4.82
2022-11-10T23:45:05.089Z,4.95
2022-11-10T23:48:07.071Z,5.18
2022-11-10T23:51:05.090Z,5.70
2022-11-10T23:54:05.394Z,5.18
2022-11-10T23:57:09.763Z,6.15
2022-11-10T23:59:57.067Z,4.63
